Time;durP1;ratioP1;P1;durP2;ratioP2;P2;SDS_P1;SDS_P2;PMS_P1;PMS_P2;Temp;Humidity;BMP_temperature;BMP_pressure;BME280_temperature;BME280_humidity;BME280_pressure;Samples;Min_cycle;Max_cycle;Signal;HPM_P1;HPM_P2
2024/01/08 00:01:34;;;;;;;1.90;1.03;;;;;;;-2.10;100.00;95525.00;4358570;32;20201;-61
2024/01/08 00:04:00;;;;;;;1.27;1.08;;;;;;;-1.90;100.00;95521.47;4343591;32;20255;-61
2024/01/08 00:06:25;;;;;;;0.83;0.83;;;;;;;-1.99;100.00;95526.09;4338142;32;20219;-61
2024/01/08 00:08:52;;;;;;;1.57;0.80;;;;;;;-1.96;100.00;95530.88;4373622;32;20241;-61
2024/01/08 00:11:18;;;;;;;1.25;0.88;;;;;;;-2.01;100.00;95525.50;4356268;32;20250;-61
2024/01/08 00:13:44;;;;;;;0.82;0.82;;;;;;;-2.14;100.00;95523.81;4326256;32;20211;-62
2024/01/08 00:16:09;;;;;;;1.03;1.03;;;;;;;-2.12;100.00;95523.59;4357558;32;20181;-61
2024/01/08 00:18:34;;;;;;;2.40;2.23;;;;;;;-2.02;100.00;95528.31;4343862;32;20234;-61
2024/01/08 00:21:02;;;;;;;1.67;1.57;;;;;;;-1.91;100.00;95518.06;4348300;32;20284;-62
2024/01/08 00:23:29;;;;;;;1.08;1.08;;;;;;;-1.89;100.00;95523.06;4341449;32;20265;-62
2024/01/08 00:25:55;;;;;;;0.95;0.95;;;;;;;-2.26;100.00;95530.66;4354432;32;20208;-61
2024/01/08 00:28:20;;;;;;;1.57;1.47;;;;;;;-2.20;100.00;95537.63;4349647;32;20194;-61
2024/01/08 00:30:47;;;;;;;0.70;0.70;;;;;;;-2.19;100.00;95531.41;4351927;32;20243;-61
2024/01/08 00:33:14;;;;;;;1.00;1.00;;;;;;;-2.04;100.00;95530.34;4367065;32;20236;-62
2024/01/08 00:35:39;;;;;;;11.25;2.12;;;;;;;-2.02;100.00;95533.53;4365361;32;20246;-61
2024/01/08 00:38:04;;;;;;;2.30;2.03;;;;;;;-2.01;98.43;95532.50;4354192;32;20185;-62
2024/01/08 00:40:30;;;;;;;0.93;0.93;;;;;;;-2.10;99.04;95530.19;4350656;32;20196;-61
2024/01/08 00:42:57;;;;;;;0.83;0.83;;;;;;;-2.20;99.82;95534.22;4328675;32;20212;-61
2024/01/08 00:45:23;;;;;;;1.15;1.15;;;;;;;-2.46;99.26;95535.16;4350616;32;20220;-61
2024/01/08 00:47:49;;;;;;;0.97;0.97;;;;;;;-2.35;100.00;95529.31;4361997;32;20201;-62
2024/01/08 00:50:15;;;;;;;0.77;0.77;;;;;;;-2.24;100.00;95523.44;4361265;32;20223;-62
2024/01/08 00:52:40;;;;;;;1.00;1.00;;;;;;;-2.14;99.96;95533.41;4322391;32;20281;-62
2024/01/08 00:55:06;;;;;;;1.27;1.27;;;;;;;-1.98;99.57;95532.09;4348362;32;20193;-61
2024/01/08 00:57:32;;;;;;;1.67;1.60;;;;;;;-2.30;99.58;95534.69;4305678;32;20190;-61
2024/01/08 00:59:59;;;;;;;0.47;0.47;;;;;;;-2.42;100.00;95536.34;4346007;32;20299;-62
2024/01/08 01:02:25;;;;;;;0.68;0.68;;;;;;;-2.45;100.00;95534.94;4347756;32;20227;-61
2024/01/08 01:04:52;;;;;;;1.58;1.37;;;;;;;-2.40;100.00;95543.91;4341583;32;20224;-62
2024/01/08 01:07:19;;;;;;;1.52;1.42;;;;;;;-2.51;100.00;95535.00;4361920;32;20185;-61
2024/01/08 01:09:45;;;;;;;1.42;1.42;;;;;;;-2.53;100.00;95545.59;4351280;32;20197;-61
2024/01/08 01:12:14;;;;;;;0.77;0.77;;;;;;;-2.47;100.00;95536.16;4365482;32;20193;-61
2024/01/08 01:14:39;;;;;;;1.55;1.40;;;;;;;-2.36;100.00;95545.09;4357826;32;20197;-61
2024/01/08 01:17:05;;;;;;;1.00;1.00;;;;;;;-2.32;100.00;95546.28;4342850;32;20271;-60
2024/01/08 01:19:31;;;;;;;1.30;1.27;;;;;;;-2.25;100.00;95550.44;4364206;32;20286;-61
2024/01/08 01:21:56;;;;;;;1.10;1.10;;;;;;;-2.24;100.00;95559.81;4348859;32;20239;-61
2024/01/08 01:24:22;;;;;;;1.80;0.83;;;;;;;-2.20;100.00;95558.41;4350970;32;20246;-61
2024/01/08 01:26:47;;;;;;;0.70;0.70;;;;;;;-2.02;100.00;95555.09;4344850;32;20208;-61
2024/01/08 01:29:14;;;;;;;1.10;1.00;;;;;;;-2.15;100.00;95556.00;4329710;32;20208;-63
2024/01/08 01:31:41;;;;;;;0.82;0.82;;;;;;;-2.46;100.00;95566.31;4368879;32;20208;-61
2024/01/08 01:34:11;;;;;;;0.85;0.80;;;;;;;-2.51;100.00;95563.56;4352159;32;20192;-61
2024/01/08 01:36:37;;;;;;;1.50;0.88;;;;;;;-2.55;100.00;95557.19;4381463;32;20247;-61
2024/01/08 01:39:04;;;;;;;0.50;0.50;;;;;;;-2.54;100.00;95569.16;4339316;32;20238;-61
2024/01/08 01:41:34;;;;;;;2.17;0.90;;;;;;;-2.47;100.00;95565.50;4355556;32;20282;-61
2024/01/08 01:43:59;;;;;;;0.82;0.82;;;;;;;-2.42;100.00;95567.50;4348326;32;22894;-61
2024/01/08 01:46:46;;;;;;;0.73;0.73;;;;;;;-2.11;100.00;95570.16;4336067;32;20205;-61
2024/01/08 01:49:13;;;;;;;0.47;0.47;;;;;;;-2.13;99.81;95579.97;4359177;32;20192;-62
2024/01/08 01:51:41;;;;;;;1.05;1.05;;;;;;;-2.07;99.85;95579.13;4372783;32;20199;-61
2024/01/08 01:54:12;;;;;;;1.65;1.17;;;;;;;-2.03;99.96;95581.31;4357251;32;20204;-61
2024/01/08 01:56:41;;;;;;;0.73;0.73;;;;;;;-2.25;99.06;95573.81;4362286;32;20185;-61
2024/01/08 01:59:07;;;;;;;0.57;0.57;;;;;;;-2.32;100.00;95575.66;4371084;32;20216;-61
2024/01/08 02:01:35;;;;;;;0.60;0.60;;;;;;;-2.24;100.00;95575.41;4344686;32;20189;-61
2024/01/08 02:04:03;;;;;;;3.80;0.62;;;;;;;-1.91;98.51;95574.44;4357518;32;20203;-61
2024/01/08 02:06:29;;;;;;;0.93;0.77;;;;;;;-2.39;96.73;95582.66;4367243;32;20245;-61
2024/01/08 02:08:55;;;;;;;0.97;0.97;;;;;;;-2.55;98.80;95583.94;4361682;32;20208;-61
2024/01/08 02:11:21;;;;;;;1.67;1.58;;;;;;;-2.24;98.66;95580.59;4304166;32;20194;-62
2024/01/08 02:13:49;;;;;;;0.87;0.87;;;;;;;-2.15;98.76;95579.38;4340139;32;20422;-61
2024/01/08 02:16:17;;;;;;;0.55;0.55;;;;;;;-2.16;100.00;95582.97;4355533;32;20254;-61
2024/01/08 02:18:42;;;;;;;0.95;0.60;;;;;;;-2.33;100.00;95584.44;4378804;32;20196;-60
2024/01/08 02:21:07;;;;;;;0.50;0.50;;;;;;;-2.49;99.71;95588.28;4381652;32;20250;-61
2024/01/08 02:23:37;;;;;;;0.80;0.80;;;;;;;-2.58;100.00;95579.16;4376235;32;20193;-60
2024/01/08 02:26:03;;;;;;;0.75;0.75;;;;;;;-2.55;100.00;95583.13;4323917;32;20217;-61
2024/01/08 02:28:29;;;;;;;0.62;0.62;;;;;;;-2.74;100.00;95574.41;4354848;32;20272;-60
2024/01/08 02:30:55;;;;;;;0.83;0.83;;;;;;;-2.69;100.00;95573.78;4363140;32;20194;-61
2024/01/08 02:33:21;;;;;;;0.40;0.40;;;;;;;-2.49;100.00;95577.09;4337112;32;20192;-61
2024/01/08 02:35:47;;;;;;;1.60;1.60;;;;;;;-2.41;99.93;95579.47;4361448;32;20279;-61
2024/01/08 02:38:13;;;;;;;0.30;0.30;;;;;;;-2.28;99.38;95569.03;4346853;32;20193;-61
2024/01/08 02:40:38;;;;;;;0.93;0.87;;;;;;;-2.39;99.36;95571.50;4357314;32;20231;-61
2024/01/08 02:43:04;;;;;;;1.87;1.77;;;;;;;-2.19;98.86;95567.78;4352025;32;20283;-61
2024/01/08 02:45:31;;;;;;;0.93;0.93;;;;;;;-2.30;98.12;95571.06;4343553;32;20289;-61
2024/01/08 02:47:57;;;;;;;0.90;0.90;;;;;;;-2.28;98.75;95573.41;4354023;32;20352;-61
2024/01/08 02:50:22;;;;;;;1.23;1.10;;;;;;;-2.47;98.73;95570.69;4352499;32;20239;-61
2024/01/08 02:52:47;;;;;;;0.67;0.67;;;;;;;-2.38;99.52;95571.28;4335923;32;20189;-61
2024/01/08 02:55:14;;;;;;;1.90;0.67;;;;;;;-2.15;99.27;95576.78;4342028;32;20196;-61
2024/01/08 02:57:39;;;;;;;0.45;0.45;;;;;;;-2.18;99.62;95582.38;4366683;32;20229;-63
2024/01/08 03:00:09;;;;;;;2.20;1.10;;;;;;;-2.47;98.89;95581.09;4346202;32;20177;-61
2024/01/08 03:02:37;;;;;;;0.50;0.50;;;;;;;-2.62;98.49;95584.94;4357538;32;20196;-60
2024/01/08 03:05:04;;;;;;;1.58;1.58;;;;;;;-2.53;99.41;95581.94;4344076;32;20185;-61
2024/01/08 03:07:29;;;;;;;0.88;0.88;;;;;;;-2.55;100.00;95581.34;4335622;32;20186;-62
2024/01/08 03:09:57;;;;;;;0.17;0.17;;;;;;;-2.51;100.00;95576.53;4354503;32;20213;-61
2024/01/08 03:12:23;;;;;;;0.68;0.68;;;;;;;-2.51;99.53;95584.31;4366829;32;20299;-60
2024/01/08 03:14:50;;;;;;;0.47;0.47;;;;;;;-2.69;98.06;95586.75;4341367;32;20213;-61
2024/01/08 03:17:16;;;;;;;0.88;0.88;;;;;;;-2.63;98.78;95596.31;4348008;32;20244;-61
2024/01/08 03:19:41;;;;;;;2.27;1.13;;;;;;;-2.71;99.97;95593.97;4337357;32;20237;-61
2024/01/08 03:22:07;;;;;;;1.23;1.23;;;;;;;-2.90;99.63;95593.00;4347760;32;20181;-61
2024/01/08 03:24:32;;;;;;;1.50;0.70;;;;;;;-2.64;99.87;95599.94;4337685;32;20192;-60
2024/01/08 03:26:59;;;;;;;0.55;0.40;;;;;;;-2.87;99.07;95597.78;4351950;32;20197;-61
2024/01/08 03:29:25;;;;;;;1.12;1.12;;;;;;;-3.02;99.78;95603.19;4321616;32;20181;-61
2024/01/08 03:31:51;;;;;;;0.40;0.40;;;;;;;-3.01;99.30;95601.41;4348643;32;20247;-61
2024/01/08 03:34:16;;;;;;;0.40;0.40;;;;;;;-2.92;99.91;95592.41;4347565;32;20303;-61
2024/01/08 03:36:46;;;;;;;0.63;0.63;;;;;;;-3.01;99.95;95597.00;4340420;32;20193;-60
2024/01/08 03:39:14;;;;;;;0.40;0.40;;;;;;;-2.97;99.57;95605.19;4342525;32;20214;-63
2024/01/08 03:41:41;;;;;;;0.90;0.90;;;;;;;-2.98;99.18;95599.22;4373667;32;20201;-61
2024/01/08 03:44:09;;;;;;;1.30;0.77;;;;;;;-3.11;99.56;95605.19;4361684;32;20193;-60
2024/01/08 03:46:39;;;;;;;0.77;0.77;;;;;;;-2.97;99.08;95594.81;4347292;32;20224;-61
2024/01/08 03:49:06;;;;;;;0.95;0.95;;;;;;;-2.95;99.86;95598.81;4286239;32;20212;-61
2024/01/08 03:51:37;;;;;;;0.70;0.70;;;;;;;-2.83;99.34;95598.97;4329649;32;20304;-61
2024/01/08 03:54:03;;;;;;;0.47;0.47;;;;;;;-2.68;99.21;95599.53;4361417;32;20189;-61
2024/01/08 03:56:30;;;;;;;2.62;2.10;;;;;;;-2.62;99.48;95593.53;4361636;32;20247;-61
2024/01/08 03:58:55;;;;;;;0.82;0.82;;;;;;;-2.68;99.45;95603.94;4363921;32;20235;-61
2024/01/08 04:01:20;;;;;;;1.23;0.50;;;;;;;-2.73;99.39;95603.75;4368080;32;20193;-61
2024/01/08 04:03:46;;;;;;;0.90;0.70;;;;;;;-2.77;99.39;95604.16;4365175;32;20196;-61
2024/01/08 04:06:11;;;;;;;0.50;0.50;;;;;;;-2.97;99.24;95607.78;4333610;32;20189;-61
2024/01/08 04:08:37;;;;;;;0.80;0.80;;;;;;;-2.92;99.28;95608.78;4358136;32;20306;-60
2024/01/08 04:11:03;;;;;;;1.07;1.03;;;;;;;-2.86;99.03;95604.56;4366779;32;20200;-60
2024/01/08 04:13:30;;;;;;;0.73;0.73;;;;;;;-2.79;98.70;95603.56;4359234;32;20198;-61
2024/01/08 04:15:56;;;;;;;3.08;1.02;;;;;;;-2.91;99.03;95607.75;4377346;32;20184;-60
2024/01/08 04:18:21;;;;;;;0.50;0.50;;;;;;;-2.90;98.51;95611.94;4365051;32;20199;-60
2024/01/08 04:20:46;;;;;;;1.20;1.20;;;;;;;-2.97;98.40;95606.00;4366562;32;20192;-60
2024/01/08 04:23:13;;;;;;;0.93;0.93;;;;;;;-3.00;98.23;95611.59;4372660;32;20177;-62
2024/01/08 04:25:40;;;;;;;0.75;0.75;;;;;;;-2.97;98.48;95611.19;4353006;32;20193;-61
2024/01/08 04:28:05;;;;;;;0.52;0.52;;;;;;;-2.84;98.08;95612.94;4352618;32;20225;-61
2024/01/08 04:30:32;;;;;;;0.70;0.70;;;;;;;-2.72;98.31;95613.94;4365759;32;20299;-60
2024/01/08 04:32:57;;;;;;;0.80;0.80;;;;;;;-2.99;98.42;95618.37;4368295;32;20270;-60
2024/01/08 04:35:27;;;;;;;1.90;1.60;;;;;;;-3.05;98.97;95613.19;4379443;32;20264;-61
2024/01/08 04:37:56;;;;;;;0.77;0.77;;;;;;;-2.73;99.18;95616.75;4368518;32;20188;-60
2024/01/08 04:40:23;;;;;;;1.45;1.42;;;;;;;-2.81;97.75;95621.13;4334373;32;20178;-61
2024/01/08 04:42:48;;;;;;;1.27;1.02;;;;;;;-2.68;97.32;95624.69;4348917;32;20255;-60
2024/01/08 04:45:14;;;;;;;0.73;0.73;;;;;;;-2.94;97.86;95625.56;4322172;32;20204;-60
2024/01/08 04:47:39;;;;;;;1.07;1.07;;;;;;;-2.81;98.28;95620.34;4364236;32;20181;-60
2024/01/08 04:50:05;;;;;;;0.83;0.83;;;;;;;-3.06;99.74;95630.53;4348246;32;20185;-60
2024/01/08 04:52:32;;;;;;;1.37;1.23;;;;;;;-2.81;99.01;95626.31;4338789;32;20271;-60
2024/01/08 04:54:58;;;;;;;0.85;0.80;;;;;;;-2.81;97.96;95620.34;4349006;32;20228;-60
2024/01/08 04:57:24;;;;;;;0.73;0.73;;;;;;;-2.62;97.59;95629.06;4348053;32;20211;-60
2024/01/08 04:59:50;;;;;;;1.00;1.00;;;;;;;-2.83;98.11;95630.12;4364714;32;20194;-60
2024/01/08 05:02:16;;;;;;;0.90;0.90;;;;;;;-2.84;97.53;95629.31;4383872;32;20211;-60
2024/01/08 05:04:43;;;;;;;0.33;0.33;;;;;;;-2.72;97.92;95634.72;4363595;32;20192;-61
2024/01/08 05:07:12;;;;;;;0.73;0.73;;;;;;;-2.79;97.51;95636.50;4380769;32;20280;-60
2024/01/08 05:09:38;;;;;;;1.37;1.35;;;;;;;-2.94;98.27;95630.75;4359744;32;20197;-60
2024/01/08 05:12:04;;;;;;;1.17;1.17;;;;;;;-2.86;97.99;95633.91;4379151;32;20311;-60
2024/01/08 05:14:33;;;;;;;0.47;0.47;;;;;;;-2.77;98.00;95631.91;4325707;32;20202;-60
2024/01/08 05:17:00;;;;;;;0.85;0.85;;;;;;;-2.99;97.79;95633.94;4346879;32;20227;-60
2024/01/08 05:19:25;;;;;;;1.20;1.20;;;;;;;-3.10;98.81;95642.31;4372085;32;20181;-60
2024/01/08 05:21:53;;;;;;;1.60;1.50;;;;;;;-3.05;98.08;95644.31;4348849;32;20219;-60
2024/01/08 05:24:20;;;;;;;0.82;0.82;;;;;;;-3.18;99.82;95648.50;4339126;32;20253;-60
2024/01/08 05:26:45;;;;;;;2.05;1.08;;;;;;;-3.13;100.00;95647.91;4355448;32;20181;-61
2024/01/08 05:29:11;;;;;;;0.40;0.40;;;;;;;-3.12;99.77;95650.28;4336330;32;20240;-61
2024/01/08 05:31:36;;;;;;;1.08;0.98;;;;;;;-3.03;99.45;95635.31;4323815;32;20214;-60
2024/01/08 05:34:02;;;;;;;0.60;0.60;;;;;;;-2.96;98.66;95643.91;4340622;32;20189;-61
2024/01/08 05:36:29;;;;;;;0.40;0.40;;;;;;;-2.76;99.50;95641.28;4338455;32;20225;-60
2024/01/08 05:38:54;;;;;;;0.95;0.95;;;;;;;-2.94;99.03;95636.72;4364607;32;20197;-60
2024/01/08 05:41:24;;;;;;;0.68;0.68;;;;;;;-2.97;100.00;95644.13;4373847;32;20228;-59
2024/01/08 05:43:49;;;;;;;0.77;0.37;;;;;;;-2.98;100.00;95645.91;4345920;32;20259;-60
2024/01/08 05:46:15;;;;;;;0.53;0.53;;;;;;;-2.89;99.64;95634.31;4337593;32;20202;-62
2024/01/08 05:48:41;;;;;;;6.50;1.47;;;;;;;-2.82;100.00;95645.50;4327170;32;20192;-61
2024/01/08 05:51:09;;;;;;;0.82;0.82;;;;;;;-2.70;99.59;95639.69;4365504;32;20243;-61
2024/01/08 05:53:37;;;;;;;2.15;0.60;;;;;;;-2.52;99.22;95642.44;4345416;32;20204;-60
2024/01/08 05:56:04;;;;;;;0.80;0.80;;;;;;;-2.65;98.97;95647.66;4323256;32;20203;-60
2024/01/08 05:58:32;;;;;;;1.40;1.40;;;;;;;-2.70;99.58;95644.88;4347041;32;23720;-60
2024/01/08 06:00:59;;;;;;;1.05;1.05;;;;;;;-2.71;99.96;95651.88;4352233;32;20193;-60
2024/01/08 06:03:24;;;;;;;1.17;1.15;;;;;;;-2.98;100.00;95653.69;4351738;32;20198;-60
2024/01/08 06:05:50;;;;;;;1.47;1.40;;;;;;;-3.00;100.00;95647.91;4357761;32;20200;-60
2024/01/08 06:08:15;;;;;;;0.20;0.20;;;;;;;-3.13;100.00;95666.06;4339408;32;20219;-60
2024/01/08 06:10:41;;;;;;;0.80;0.80;;;;;;;-3.27;100.00;95660.06;4360989;32;20188;-61
2024/01/08 06:13:08;;;;;;;0.90;0.90;;;;;;;-3.27;100.00;95656.69;4358245;32;20192;-60
2024/01/08 06:15:34;;;;;;;0.82;0.82;;;;;;;-3.27;100.00;95667.84;4360968;32;20272;-60
2024/01/08 06:18:04;;;;;;;1.43;1.33;;;;;;;-3.05;100.00;95657.28;4330997;32;20234;-60
2024/01/08 06:20:33;;;;;;;1.27;1.27;;;;;;;-3.16;100.00;95662.09;4333009;32;20230;-60
2024/01/08 06:22:59;;;;;;;1.95;1.27;;;;;;;-3.05;100.00;95660.66;4340716;32;20304;-60
2024/01/08 06:25:25;;;;;;;0.73;0.73;;;;;;;-3.12;100.00;95655.47;4339097;32;20200;-60
2024/01/08 06:27:52;;;;;;;1.25;1.15;;;;;;;-2.84;100.00;95665.66;4355728;32;20185;-60
2024/01/08 06:30:18;;;;;;;1.95;0.62;;;;;;;-2.73;100.00;95663.47;4366038;32;20256;-60
2024/01/08 06:32:43;;;;;;;0.70;0.70;;;;;;;-2.69;100.00;95670.63;4348406;32;20302;-63
2024/01/08 06:35:10;;;;;;;0.60;0.60;;;;;;;-2.69;100.00;95664.63;4362571;32;20181;-61
2024/01/08 06:37:35;;;;;;;0.75;0.75;;;;;;;-2.52;100.00;95666.63;4346305;32;20236;-61
2024/01/08 06:40:01;;;;;;;0.53;0.53;;;;;;;-2.66;99.45;95674.63;4352631;32;20212;-61
2024/01/08 06:42:28;;;;;;;1.10;1.00;;;;;;;-2.78;100.00;95669.25;4346653;32;20210;-60
2024/01/08 06:44:54;;;;;;;1.17;1.08;;;;;;;-2.65;100.00;95671.00;4319385;32;20208;-60
2024/01/08 06:47:20;;;;;;;1.20;1.10;;;;;;;-2.84;100.00;95670.84;4327508;32;20253;-60
2024/01/08 06:49:45;;;;;;;1.30;1.30;;;;;;;-2.91;100.00;95685.59;4327914;32;20201;-60
2024/01/08 06:52:10;;;;;;;1.20;1.10;;;;;;;-2.88;100.00;95687.81;4329721;32;20201;-61
2024/01/08 06:54:37;;;;;;;0.70;0.70;;;;;;;-3.05;100.00;95691.00;4355344;32;20228;-61
2024/01/08 06:57:03;;;;;;;0.50;0.50;;;;;;;-2.84;100.00;95686.41;4361912;32;20219;-60
2024/01/08 06:59:30;;;;;;;0.27;0.27;;;;;;;-2.94;100.00;95685.25;4346354;32;20232;-60
2024/01/08 07:01:55;;;;;;;1.00;1.00;;;;;;;-2.70;100.00;95689.03;4358676;32;20196;-60
2024/01/08 07:04:22;;;;;;;0.90;0.90;;;;;;;-2.92;100.00;95691.03;4310282;32;20208;-60
2024/01/08 07:06:49;;;;;;;1.02;1.02;;;;;;;-3.12;100.00;95689.19;4338673;32;20201;-61
2024/01/08 07:09:18;;;;;;;1.02;1.02;;;;;;;-2.92;100.00;95686.63;4351894;32;20208;-60
2024/01/08 07:11:44;;;;;;;0.90;0.90;;;;;;;-2.86;100.00;95685.00;4373995;32;20188;-60
2024/01/08 07:14:09;;;;;;;0.97;0.97;;;;;;;-2.69;100.00;95688.78;4366055;32;20250;-61
2024/01/08 07:16:36;;;;;;;2.17;1.07;;;;;;;-2.61;100.00;95677.41;4356125;32;20252;-60
2024/01/08 07:19:01;;;;;;;1.98;1.87;;;;;;;-2.47;100.00;95687.56;4346572;32;20275;-60
2024/01/08 07:21:27;;;;;;;4.47;1.43;;;;;;;-2.45;100.00;95685.56;4346421;32;20192;-60
2024/01/08 07:23:54;;;;;;;0.57;0.57;;;;;;;-2.47;100.00;95684.97;4358059;32;20204;-60
2024/01/08 07:26:21;;;;;;;1.37;1.35;;;;;;;-2.53;100.00;95688.41;4353763;32;20215;-60
2024/01/08 07:28:46;;;;;;;0.95;0.95;;;;;;;-2.58;100.00;95687.41;4342420;32;20340;-60
2024/01/08 07:31:13;;;;;;;0.83;0.83;;;;;;;-2.44;100.00;95681.16;4358555;32;20200;-60
2024/01/08 07:33:41;;;;;;;1.52;1.50;;;;;;;-2.54;100.00;95689.38;4371431;32;20225;-60
2024/01/08 07:36:08;;;;;;;0.52;0.52;;;;;;;-2.22;100.00;95685.09;4356268;32;20240;-60
2024/01/08 07:38:37;;;;;;;1.50;1.50;;;;;;;-2.36;100.00;95688.75;4342038;32;20189;-60
2024/01/08 07:41:31;;;;;;;1.75;1.65;;;;;;;-2.47;100.00;95694.56;4342615;32;20212;-60
2024/01/08 07:43:57;;;;;;;0.85;0.85;;;;;;;-2.38;100.00;95703.75;4352196;32;20226;-60
2024/01/08 07:46:22;;;;;;;0.93;0.93;;;;;;;-2.42;100.00;95702.53;4340061;32;20264;-60
2024/01/08 07:48:50;;;;;;;2.50;2.30;;;;;;;-2.37;100.00;95705.34;4357311;32;20247;-63
2024/01/08 07:51:22;;;;;;;2.83;2.22;;;;;;;0.44;100.00;95686.19;4357607;32;20347;-63
2024/01/08 07:53:50;;;;;;;3.47;3.30;;;;;;;7.02;100.00;95668.75;4362174;32;20258;-64
2024/01/08 07:56:25;;;;;;;5.30;5.00;;;;;;;7.32;100.00;95676.66;4363096;32;20277;-64
2024/01/08 07:58:52;;;;;;;2.97;2.70;;;;;;;8.18;96.85;95679.22;4353062;32;20308;-64
2024/01/08 08:01:20;;;;;;;2.70;2.60;;;;;;;8.99;82.13;95672.00;4343693;32;20316;-64
2024/01/08 08:03:46;;;;;;;2.67;2.47;;;;;;;9.27;60.83;95693.25;4348132;32;20322;-63
2024/01/08 08:06:12;;;;;;;2.67;2.47;;;;;;;9.53;55.87;95696.53;4350394;32;20284;-64
2024/01/08 08:08:38;;;;;;;1.50;1.40;;;;;;;9.81;56.24;95694.16;4346680;32;20332;-65
2024/01/08 08:11:07;;;;;;;1.10;1.10;;;;;;;6.96;52.53;95712.78;4348313;32;20272;-60
2024/01/08 08:13:33;;;;;;;1.50;1.47;;;;;;;4.97;59.47;95730.19;4367776;32;20284;-61
2024/01/08 08:15:59;;;;;;;1.67;1.57;;;;;;;2.91;59.66;95725.19;4339707;32;20415;-60
2024/01/08 08:18:24;;;;;;;1.37;1.37;;;;;;;1.72;64.26;95732.72;4318922;32;20205;-60
2024/01/08 08:20:51;;;;;;;2.23;2.13;;;;;;;1.02;68.24;95748.28;4360518;32;20339;-59
2024/01/08 08:23:16;;;;;;;1.20;1.20;;;;;;;0.52;70.70;95748.53;4362706;32;20200;-60
2024/01/08 08:25:43;;;;;;;0.93;0.93;;;;;;;-0.25;73.51;95749.19;4351753;32;20365;-60
2024/01/08 08:28:08;;;;;;;2.67;2.37;;;;;;;-0.85;77.30;95754.06;4364021;32;20196;-59
2024/01/08 08:30:35;;;;;;;2.03;1.92;;;;;;;-1.01;78.45;95762.38;4364163;32;20281;-59
2024/01/08 08:33:00;;;;;;;2.07;1.53;;;;;;;-1.55;81.70;95761.06;4359044;32;20259;-59
2024/01/08 08:35:28;;;;;;;1.50;1.40;;;;;;;-1.35;82.29;95755.75;4347683;32;20216;-60
2024/01/08 08:37:56;;;;;;;0.55;0.55;;;;;;;-1.43;83.48;95757.59;4359924;32;20216;-62
2024/01/08 08:40:23;;;;;;;3.00;2.10;;;;;;;-1.48;83.22;95757.44;4358705;32;20184;-60
2024/01/08 08:42:48;;;;;;;1.08;1.08;;;;;;;-1.40;82.73;95757.19;4353568;32;20214;-60
2024/01/08 08:45:17;;;;;;;1.63;1.53;;;;;;;-1.40;82.80;95759.78;4355439;32;20197;-60
2024/01/08 08:47:42;;;;;;;0.85;0.85;;;;;;;-1.39;83.28;95756.19;4352980;32;20227;-61
2024/01/08 08:50:08;;;;;;;1.17;1.17;;;;;;;-1.13;82.35;95762.25;4367951;32;20215;-60
2024/01/08 08:52:33;;;;;;;3.07;1.20;;;;;;;-1.17;81.60;95764.47;4340248;32;20263;-60
2024/01/08 08:54:59;;;;;;;1.00;1.00;;;;;;;-1.39;82.86;95756.19;4361840;32;20231;-60
2024/01/08 08:57:25;;;;;;;1.92;1.83;;;;;;;-1.12;82.36;95761.25;4327366;32;20208;-61
2024/01/08 08:59:52;;;;;;;1.53;1.40;;;;;;;-1.20;82.06;95756.28;4315395;32;20190;-60
2024/01/08 09:02:18;;;;;;;0.77;0.77;;;;;;;-1.21;82.37;95759.88;4356277;32;20181;-61
2024/01/08 09:04:43;;;;;;;1.23;1.23;;;;;;;-1.07;82.16;95766.62;4349623;32;20189;-60
2024/01/08 09:07:10;;;;;;;4.43;1.77;;;;;;;-1.16;81.80;95760.88;4363100;32;20236;-60
2024/01/08 09:09:35;;;;;;;2.15;1.65;;;;;;;-1.30;82.29;95766.34;4347951;32;20261;-60
2024/01/08 09:12:01;;;;;;;2.57;1.57;;;;;;;-1.35;82.10;95763.56;4370034;32;20236;-61
2024/01/08 09:14:26;;;;;;;1.43;1.33;;;;;;;-1.29;82.19;95770.56;4358206;32;20208;-60
2024/01/08 09:16:52;;;;;;;1.30;1.30;;;;;;;-1.39;82.90;95769.19;4358528;32;20190;-60
2024/01/08 09:19:19;;;;;;;0.67;0.67;;;;;;;-1.47;82.82;95779.84;4362565;32;20294;-60
2024/01/08 09:21:46;;;;;;;1.20;1.20;;;;;;;-1.60;82.24;95779.06;4341926;32;20200;-62
2024/01/08 09:24:11;;;;;;;1.15;1.15;;;;;;;-1.40;82.54;95782.41;4343542;32;20239;-60
2024/01/08 09:26:41;;;;;;;1.43;1.33;;;;;;;-1.52;83.24;95784.84;4357035;32;20181;-60
2024/01/08 09:29:08;;;;;;;0.88;0.88;;;;;;;-1.44;82.72;95778.59;4344453;32;20208;-60
2024/01/08 09:31:35;;;;;;;1.83;1.77;;;;;;;-1.42;84.18;95777.41;4355081;32;20207;-61
2024/01/08 09:34:00;;;;;;;1.17;1.17;;;;;;;-1.87;83.94;95780.97;4355325;32;20275;-60
2024/01/08 09:36:27;;;;;;;1.57;1.47;;;;;;;-1.99;85.10;95791.19;4336968;32;20213;-61
2024/01/08 09:38:52;;;;;;;1.08;1.08;;;;;;;-1.92;85.59;95791.19;4354238;32;20208;-60
2024/01/08 09:41:18;;;;;;;0.77;0.73;;;;;;;-1.83;85.27;95782.16;4372263;32;20237;-60
2024/01/08 09:43:46;;;;;;;1.67;1.57;;;;;;;-1.68;85.39;95781.94;4344360;32;20196;-61
2024/01/08 09:46:17;;;;;;;1.42;1.42;;;;;;;-1.69;84.74;95790.72;4338875;32;20192;-61
2024/01/08 09:48:44;;;;;;;1.40;1.30;;;;;;;-1.59;84.88;95781.47;4354720;32;20180;-60
2024/01/08 09:51:10;;;;;;;1.48;1.27;;;;;;;-1.20;85.19;95790.09;4358737;32;20197;-62
2024/01/08 09:53:36;;;;;;;1.53;1.53;;;;;;;-1.17;83.82;95790.50;4361623;32;20206;-60
2024/01/08 09:56:04;;;;;;;2.05;1.95;;;;;;;-1.31;83.32;95791.56;4365062;32;20193;-61
2024/01/08 09:58:31;;;;;;;1.77;1.67;;;;;;;-1.59;83.75;95798.88;4376030;32;20232;-59
2024/01/08 10:00:56;;;;;;;1.55;1.55;;;;;;;-1.47;84.46;95789.44;4360207;32;20185;-61
2024/01/08 10:03:23;;;;;;;1.33;1.27;;;;;;;-1.29;84.68;95788.78;4340681;32;20232;-60
2024/01/08 10:05:50;;;;;;;1.27;1.27;;;;;;;-1.00;83.40;95796.00;4353177;32;20196;-61
2024/01/08 10:08:17;;;;;;;1.12;1.12;;;;;;;-0.82;82.81;95787.47;4344792;32;20215;-61
2024/01/08 10:10:43;;;;;;;1.05;0.93;;;;;;;-0.97;82.97;95785.19;4348352;32;20219;-61
2024/01/08 10:13:11;;;;;;;1.43;1.23;;;;;;;-1.25;82.83;95787.34;4333136;32;20189;-61
2024/01/08 10:15:37;;;;;;;1.23;1.10;;;;;;;-1.59;84.70;95791.88;4349865;32;20185;-60
2024/01/08 10:18:06;;;;;;;1.60;1.50;;;;;;;-1.64;84.82;95794.28;4340423;32;20256;-61
2024/01/08 10:20:32;;;;;;;3.83;2.25;;;;;;;-1.53;85.75;95785.87;4350428;32;20290;-60
2024/01/08 10:23:09;;;;;;;2.25;1.75;;;;;;;-1.43;86.13;95781.00;4367615;32;20181;-61
2024/01/08 10:25:38;;;;;;;1.12;1.12;;;;;;;-1.47;84.87;95781.66;4343336;32;20188;-60
2024/01/08 10:28:10;;;;;;;1.52;1.52;;;;;;;-1.58;84.57;95784.88;4372644;32;20197;-60
2024/01/08 10:30:35;;;;;;;3.53;2.05;;;;;;;-1.76;86.46;95786.34;4369121;32;20237;-61
2024/01/08 10:33:01;;;;;;;1.87;1.73;;;;;;;-1.77;88.58;95789.13;4353992;32;20264;-60
2024/01/08 10:35:31;;;;;;;1.63;1.60;;;;;;;-1.55;87.49;95789.66;4342980;32;20193;-60
2024/01/08 10:38:00;;;;;;;2.05;1.95;;;;;;;-1.46;87.01;95785.84;4375313;32;20203;-61
2024/01/08 10:40:29;;;;;;;5.00;2.35;;;;;;;-1.39;85.62;95789.19;4378291;32;20184;-60
2024/01/08 10:42:57;;;;;;;2.00;1.90;;;;;;;-1.26;84.48;95786.56;4343727;32;20223;-61
2024/01/08 10:45:23;;;;;;;1.33;1.33;;;;;;;-1.24;84.36;95791.53;4335560;32;20211;-60
2024/01/08 10:48:01;;;;;;;1.53;1.53;;;;;;;-1.36;83.92;95796.59;4376325;32;20310;-61
2024/01/08 10:50:28;;;;;;;1.27;1.02;;;;;;;-1.66;85.89;95787.72;4347576;32;20268;-60
2024/01/08 10:52:56;;;;;;;1.37;1.37;;;;;;;-1.52;86.44;95777.06;4371635;32;20184;-61
2024/01/08 10:55:24;;;;;;;1.83;1.73;;;;;;;-1.40;85.65;95775.41;4368588;32;20181;-60
2024/01/08 10:58:03;;;;;;;1.27;1.27;;;;;;;-1.34;85.87;95778.97;4383018;32;20248;-60
2024/01/08 11:00:29;;;;;;;1.70;1.60;;;;;;;-1.28;85.65;95777.34;4369874;32;20219;-61
2024/01/08 11:02:56;;;;;;;1.20;1.17;;;;;;;-1.63;85.82;95774.28;4353532;32;20212;-60
2024/01/08 11:05:21;;;;;;;2.60;1.73;;;;;;;-1.65;86.82;95779.69;4343306;32;20275;-61
2024/01/08 11:07:50;;;;;;;1.93;1.83;;;;;;;-1.66;87.13;95769.53;4351764;32;20197;-60
2024/01/08 11:10:16;;;;;;;2.45;2.25;;;;;;;-1.57;87.42;95768.28;4351657;32;20370;-61
2024/01/08 11:12:50;;;;;;;2.05;1.95;;;;;;;-1.19;86.65;95770.87;4367726;32;20189;-61
2024/01/08 11:15:17;;;;;;;2.85;2.40;;;;;;;-1.42;85.96;95769.59;4375938;32;20191;-60
2024/01/08 11:17:50;;;;;;;1.60;1.50;;;;;;;-1.58;87.52;95770.06;4348179;32;20221;-61
2024/01/08 11:20:35;;;;;;;2.70;1.75;;;;;;;-1.46;86.89;95773.63;4348569;32;20263;-60
2024/01/08 11:23:38;;;;;;;1.42;1.42;;;;;;;-1.44;86.87;95771.59;4370219;32;22096;-60
2024/01/08 11:26:14;;;;;;;1.70;1.60;;;;;;;-1.36;86.50;95772.38;4367379;32;20203;-61
2024/01/08 11:28:41;;;;;;;2.30;2.00;;;;;;;-1.28;87.28;95772.94;4362448;32;20184;-61
2024/01/08 11:31:43;;;;;;;2.42;2.22;;;;;;;-0.91;85.49;95771.34;4368007;32;20220;-61